sensor_id;sensor_type;location;lat;lon;timestamp;P1;durP1;ratioP1;P2;durP2;ratioP2
64244;SDS011;50584;29.058;-110.966;2023-04-24T00:00:55;1.33;;;1.02;;
64244;SDS011;50584;29.058;-110.966;2023-04-24T00:03:26;3.67;;;1.20;;
64244;SDS011;50584;29.058;-110.966;2023-04-24T00:05:53;4.88;;;0.93;;
64244;SDS011;50584;29.058;-110.966;2023-04-24T00:08:19;6.00;;;1.23;;
64244;SDS011;50584;29.058;-110.966;2023-04-24T00:10:45;3.13;;;0.77;;
64244;SDS011;50584;29.058;-110.966;2023-04-24T00:13:11;1.85;;;0.80;;
64244;SDS011;50584;29.058;-110.966;2023-04-24T00:15:36;4.75;;;0.93;;
64244;SDS011;50584;29.058;-110.966;2023-04-24T00:18:02;1.75;;;0.88;;
64244;SDS011;50584;29.058;-110.966;2023-04-24T00:20:28;0.93;;;0.88;;
64244;SDS011;50584;29.058;-110.966;2023-04-24T00:23:01;5.28;;;1.17;;
64244;SDS011;50584;29.058;-110.966;2023-04-24T00:25:26;4.78;;;1.00;;
64244;SDS011;50584;29.058;-110.966;2023-04-24T00:27:52;12.32;;;1.10;;
64244;SDS011;50584;29.058;-110.966;2023-04-24T00:30:18;7.53;;;1.40;;
64244;SDS011;50584;29.058;-110.966;2023-04-24T00:32:44;5.05;;;1.08;;
64244;SDS011;50584;29.058;-110.966;2023-04-24T00:35:10;4.70;;;1.58;;
64244;SDS011;50584;29.058;-110.966;2023-04-24T00:37:36;6.07;;;1.10;;
64244;SDS011;50584;29.058;-110.966;2023-04-24T00:40:02;5.15;;;0.98;;
64244;SDS011;50584;29.058;-110.966;2023-04-24T00:42:28;5.60;;;1.20;;
64244;SDS011;50584;29.058;-110.966;2023-04-24T00:44:54;6.50;;;1.27;;
64244;SDS011;50584;29.058;-110.966;2023-04-24T00:47:19;7.53;;;1.65;;
64244;SDS011;50584;29.058;-110.966;2023-04-24T00:49:47;10.48;;;1.55;;
64244;SDS011;50584;29.058;-110.966;2023-04-24T00:52:14;12.30;;;2.22;;
64244;SDS011;50584;29.058;-110.966;2023-04-24T00:54:45;7.65;;;1.40;;
64244;SDS011;50584;29.058;-110.966;2023-04-24T00:57:12;17.27;;;1.48;;
64244;SDS011;50584;29.058;-110.966;2023-04-24T00:59:41;34.53;;;2.65;;
64244;SDS011;50584;29.058;-110.966;2023-04-24T01:02:07;16.13;;;1.63;;
64244;SDS011;50584;29.058;-110.966;2023-04-24T01:04:34;16.58;;;2.03;;
64244;SDS011;50584;29.058;-110.966;2023-04-24T01:07:00;4.80;;;1.63;;
64244;SDS011;50584;29.058;-110.966;2023-04-24T01:09:26;8.52;;;1.20;;
64244;SDS011;50584;29.058;-110.966;2023-04-24T01:11:52;7.47;;;1.50;;
64244;SDS011;50584;29.058;-110.966;2023-04-24T01:14:18;8.57;;;1.63;;
64244;SDS011;50584;29.058;-110.966;2023-04-24T01:16:44;3.90;;;1.50;;
64244;SDS011;50584;29.058;-110.966;2023-04-24T01:19:09;11.93;;;1.40;;
64244;SDS011;50584;29.058;-110.966;2023-04-24T01:21:37;3.28;;;1.30;;
64244;SDS011;50584;29.058;-110.966;2023-04-24T01:24:03;7.93;;;1.35;;
64244;SDS011;50584;29.058;-110.966;2023-04-24T01:26:29;9.13;;;1.35;;
64244;SDS011;50584;29.058;-110.966;2023-04-24T01:28:55;6.60;;;1.25;;
64244;SDS011;50584;29.058;-110.966;2023-04-24T01:31:21;4.45;;;1.50;;
64244;SDS011;50584;29.058;-110.966;2023-04-24T01:33:47;9.35;;;1.30;;
64244;SDS011;50584;29.058;-110.966;2023-04-24T01:36:13;13.05;;;1.40;;
64244;SDS011;50584;29.058;-110.966;2023-04-24T01:38:39;7.53;;;1.30;;
64244;SDS011;50584;29.058;-110.966;2023-04-24T01:41:05;10.35;;;1.33;;
64244;SDS011;50584;29.058;-110.966;2023-04-24T01:43:31;6.20;;;1.30;;
64244;SDS011;50584;29.058;-110.966;2023-04-24T01:45:57;5.75;;;1.15;;
64244;SDS011;50584;29.058;-110.966;2023-04-24T01:48:23;9.43;;;2.60;;
64244;SDS011;50584;29.058;-110.966;2023-04-24T01:50:48;7.95;;;1.90;;
64244;SDS011;50584;29.058;-110.966;2023-04-24T01:53:14;6.15;;;1.58;;
64244;SDS011;50584;29.058;-110.966;2023-04-24T01:55:40;4.80;;;1.33;;
64244;SDS011;50584;29.058;-110.966;2023-04-24T01:58:06;3.75;;;1.38;;
64244;SDS011;50584;29.058;-110.966;2023-04-24T02:00:32;7.60;;;1.42;;
64244;SDS011;50584;29.058;-110.966;2023-04-24T02:02:58;18.77;;;2.08;;
64244;SDS011;50584;29.058;-110.966;2023-04-24T02:05:24;20.02;;;1.70;;
64244;SDS011;50584;29.058;-110.966;2023-04-24T02:07:50;5.32;;;1.40;;
64244;SDS011;50584;29.058;-110.966;2023-04-24T02:10:15;2.58;;;1.00;;
64244;SDS011;50584;29.058;-110.966;2023-04-24T02:12:41;4.82;;;1.30;;
64244;SDS011;50584;29.058;-110.966;2023-04-24T02:15:07;4.53;;;1.20;;
64244;SDS011;50584;29.058;-110.966;2023-04-24T02:17:33;5.00;;;1.20;;
64244;SDS011;50584;29.058;-110.966;2023-04-24T02:19:59;3.38;;;1.60;;
64244;SDS011;50584;29.058;-110.966;2023-04-24T02:22:25;5.13;;;1.33;;
64244;SDS011;50584;29.058;-110.966;2023-04-24T02:24:50;8.05;;;2.88;;
64244;SDS011;50584;29.058;-110.966;2023-04-24T02:27:16;20.50;;;8.57;;
64244;SDS011;50584;29.058;-110.966;2023-04-24T02:29:42;7.13;;;3.33;;
64244;SDS011;50584;29.058;-110.966;2023-04-24T02:32:08;6.38;;;2.67;;
64244;SDS011;50584;29.058;-110.966;2023-04-24T02:34:37;3.38;;;1.88;;
64244;SDS011;50584;29.058;-110.966;2023-04-24T02:37:03;13.23;;;2.20;;
64244;SDS011;50584;29.058;-110.966;2023-04-24T02:39:28;5.07;;;1.42;;
64244;SDS011;50584;29.058;-110.966;2023-04-24T02:41:54;4.72;;;1.67;;
64244;SDS011;50584;29.058;-110.966;2023-04-24T02:44:20;7.22;;;1.73;;
64244;SDS011;50584;29.058;-110.966;2023-04-24T02:46:46;6.43;;;2.13;;
64244;SDS011;50584;29.058;-110.966;2023-04-24T02:49:12;8.57;;;1.88;;
64244;SDS011;50584;29.058;-110.966;2023-04-24T02:51:38;9.73;;;2.20;;
64244;SDS011;50584;29.058;-110.966;2023-04-24T02:54:07;4.70;;;2.30;;
64244;SDS011;50584;29.058;-110.966;2023-04-24T02:56:33;6.80;;;2.08;;
64244;SDS011;50584;29.058;-110.966;2023-04-24T02:58:59;14.55;;;2.00;;
64244;SDS011;50584;29.058;-110.966;2023-04-24T03:01:25;7.55;;;1.85;;
64244;SDS011;50584;29.058;-110.966;2023-04-24T03:03:51;5.47;;;1.42;;
64244;SDS011;50584;29.058;-110.966;2023-04-24T03:06:16;7.90;;;2.10;;
64244;SDS011;50584;29.058;-110.966;2023-04-24T03:08:42;5.28;;;1.48;;
64244;SDS011;50584;29.058;-110.966;2023-04-24T03:11:08;6.25;;;1.88;;
64244;SDS011;50584;29.058;-110.966;2023-04-24T03:13:34;8.43;;;1.48;;
64244;SDS011;50584;29.058;-110.966;2023-04-24T03:16:00;17.00;;;2.00;;
64244;SDS011;50584;29.058;-110.966;2023-04-24T03:18:25;11.80;;;1.92;;
64244;SDS011;50584;29.058;-110.966;2023-04-24T03:20:51;7.07;;;1.60;;
64244;SDS011;50584;29.058;-110.966;2023-04-24T03:23:17;1.63;;;1.48;;
64244;SDS011;50584;29.058;-110.966;2023-04-24T03:25:43;2.97;;;1.60;;
64244;SDS011;50584;29.058;-110.966;2023-04-24T03:28:08;6.45;;;1.80;;
64244;SDS011;50584;29.058;-110.966;2023-04-24T03:30:34;5.20;;;1.92;;
64244;SDS011;50584;29.058;-110.966;2023-04-24T03:33:00;9.43;;;2.10;;
64244;SDS011;50584;29.058;-110.966;2023-04-24T03:35:26;7.13;;;1.73;;
64244;SDS011;50584;29.058;-110.966;2023-04-24T03:37:51;13.18;;;2.90;;
64244;SDS011;50584;29.058;-110.966;2023-04-24T03:40:17;10.70;;;2.05;;
64244;SDS011;50584;29.058;-110.966;2023-04-24T03:42:43;11.63;;;2.08;;
64244;SDS011;50584;29.058;-110.966;2023-04-24T03:45:09;6.72;;;1.83;;
64244;SDS011;50584;29.058;-110.966;2023-04-24T03:47:35;4.13;;;1.30;;
64244;SDS011;50584;29.058;-110.966;2023-04-24T03:50:01;9.50;;;2.15;;
64244;SDS011;50584;29.058;-110.966;2023-04-24T03:52:27;3.75;;;2.97;;
64244;SDS011;50584;29.058;-110.966;2023-04-24T03:54:52;7.50;;;1.70;;
64244;SDS011;50584;29.058;-110.966;2023-04-24T03:57:18;10.45;;;1.95;;
64244;SDS011;50584;29.058;-110.966;2023-04-24T03:59:44;9.15;;;2.92;;
64244;SDS011;50584;29.058;-110.966;2023-04-24T04:02:10;8.25;;;2.58;;
64244;SDS011;50584;29.058;-110.966;2023-04-24T04:04:36;8.48;;;3.17;;
64244;SDS011;50584;29.058;-110.966;2023-04-24T04:07:01;3.25;;;2.67;;
64244;SDS011;50584;29.058;-110.966;2023-04-24T04:09:28;15.20;;;3.50;;
64244;SDS011;50584;29.058;-110.966;2023-04-24T04:11:54;11.15;;;3.83;;
64244;SDS011;50584;29.058;-110.966;2023-04-24T04:14:21;6.35;;;2.70;;
64244;SDS011;50584;29.058;-110.966;2023-04-24T04:16:46;4.03;;;2.50;;
64244;SDS011;50584;29.058;-110.966;2023-04-24T04:19:12;7.85;;;1.92;;
64244;SDS011;50584;29.058;-110.966;2023-04-24T04:21:38;1.75;;;1.65;;
64244;SDS011;50584;29.058;-110.966;2023-04-24T04:24:04;9.35;;;2.17;;
64244;SDS011;50584;29.058;-110.966;2023-04-24T04:26:30;9.38;;;2.05;;
64244;SDS011;50584;29.058;-110.966;2023-04-24T04:28:58;5.25;;;1.52;;
64244;SDS011;50584;29.058;-110.966;2023-04-24T04:31:24;4.38;;;1.50;;
64244;SDS011;50584;29.058;-110.966;2023-04-24T04:33:50;7.07;;;1.90;;
64244;SDS011;50584;29.058;-110.966;2023-04-24T04:36:15;1.60;;;1.27;;
64244;SDS011;50584;29.058;-110.966;2023-04-24T04:38:42;5.38;;;1.60;;
64244;SDS011;50584;29.058;-110.966;2023-04-24T04:41:09;5.63;;;2.40;;
64244;SDS011;50584;29.058;-110.966;2023-04-24T04:43:36;4.40;;;1.58;;
64244;SDS011;50584;29.058;-110.966;2023-04-24T04:46:03;12.13;;;2.35;;
64244;SDS011;50584;29.058;-110.966;2023-04-24T04:48:29;5.40;;;2.00;;
64244;SDS011;50584;29.058;-110.966;2023-04-24T04:50:56;18.02;;;2.63;;
64244;SDS011;50584;29.058;-110.966;2023-04-24T04:53:22;7.28;;;2.20;;
64244;SDS011;50584;29.058;-110.966;2023-04-24T04:55:48;8.73;;;2.50;;
64244;SDS011;50584;29.058;-110.966;2023-04-24T04:58:14;5.72;;;2.53;;
64244;SDS011;50584;29.058;-110.966;2023-04-24T05:00:39;9.65;;;2.30;;
64244;SDS011;50584;29.058;-110.966;2023-04-24T05:03:06;14.90;;;2.28;;
64244;SDS011;50584;29.058;-110.966;2023-04-24T05:05:32;11.55;;;2.70;;
64244;SDS011;50584;29.058;-110.966;2023-04-24T05:07:58;8.18;;;2.03;;
64244;SDS011;50584;29.058;-110.966;2023-04-24T05:10:23;12.68;;;2.72;;
64244;SDS011;50584;29.058;-110.966;2023-04-24T05:12:49;5.07;;;2.10;;
64244;SDS011;50584;29.058;-110.966;2023-04-24T05:15:15;6.38;;;2.30;;
64244;SDS011;50584;29.058;-110.966;2023-04-24T05:17:41;8.20;;;2.50;;
64244;SDS011;50584;29.058;-110.966;2023-04-24T05:20:07;22.50;;;5.43;;
64244;SDS011;50584;29.058;-110.966;2023-04-24T05:22:33;4.55;;;2.20;;
64244;SDS011;50584;29.058;-110.966;2023-04-24T05:24:59;5.57;;;2.33;;
64244;SDS011;50584;29.058;-110.966;2023-04-24T05:27:25;15.00;;;2.88;;
64244;SDS011;50584;29.058;-110.966;2023-04-24T05:29:51;11.40;;;2.90;;
64244;SDS011;50584;29.058;-110.966;2023-04-24T05:32:16;9.80;;;3.30;;
64244;SDS011;50584;29.058;-110.966;2023-04-24T05:34:42;13.00;;;3.40;;
64244;SDS011;50584;29.058;-110.966;2023-04-24T05:37:08;11.93;;;2.90;;
64244;SDS011;50584;29.058;-110.966;2023-04-24T05:39:35;10.43;;;2.90;;
64244;SDS011;50584;29.058;-110.966;2023-04-24T05:42:01;9.55;;;2.60;;
64244;SDS011;50584;29.058;-110.966;2023-04-24T05:44:28;7.07;;;2.45;;
64244;SDS011;50584;29.058;-110.966;2023-04-24T05:46:54;11.27;;;2.55;;
64244;SDS011;50584;29.058;-110.966;2023-04-24T05:49:21;10.57;;;2.88;;
64244;SDS011;50584;29.058;-110.966;2023-04-24T05:51:46;6.47;;;2.35;;
64244;SDS011;50584;29.058;-110.966;2023-04-24T05:54:12;14.38;;;2.90;;
64244;SDS011;50584;29.058;-110.966;2023-04-24T05:56:38;10.13;;;3.20;;
64244;SDS011;50584;29.058;-110.966;2023-04-24T05:59:04;11.85;;;3.22;;
64244;SDS011;50584;29.058;-110.966;2023-04-24T06:01:30;15.63;;;2.78;;
64244;SDS011;50584;29.058;-110.966;2023-04-24T06:03:56;13.05;;;2.53;;
64244;SDS011;50584;29.058;-110.966;2023-04-24T06:06:23;9.25;;;2.70;;
64244;SDS011;50584;29.058;-110.966;2023-04-24T06:08:49;10.23;;;2.38;;
64244;SDS011;50584;29.058;-110.966;2023-04-24T06:11:15;8.27;;;2.17;;
64244;SDS011;50584;29.058;-110.966;2023-04-24T06:13:41;9.70;;;2.40;;
64244;SDS011;50584;29.058;-110.966;2023-04-24T06:16:06;11.82;;;2.22;;
64244;SDS011;50584;29.058;-110.966;2023-04-24T06:18:32;7.70;;;2.35;;
64244;SDS011;50584;29.058;-110.966;2023-04-24T06:20:58;7.95;;;2.22;;
64244;SDS011;50584;29.058;-110.966;2023-04-24T06:23:24;9.25;;;2.42;;
64244;SDS011;50584;29.058;-110.966;2023-04-24T06:25:50;14.50;;;2.75;;
64244;SDS011;50584;29.058;-110.966;2023-04-24T06:28:16;14.90;;;3.15;;
64244;SDS011;50584;29.058;-110.966;2023-04-24T06:30:42;21.58;;;3.53;;
64244;SDS011;50584;29.058;-110.966;2023-04-24T06:33:08;20.42;;;2.85;;
64244;SDS011;50584;29.058;-110.966;2023-04-24T06:35:35;13.07;;;2.67;;
64244;SDS011;50584;29.058;-110.966;2023-04-24T06:38:01;11.13;;;2.20;;
64244;SDS011;50584;29.058;-110.966;2023-04-24T06:40:27;11.77;;;2.35;;
64244;SDS011;50584;29.058;-110.966;2023-04-24T06:42:52;6.72;;;1.95;;
64244;SDS011;50584;29.058;-110.966;2023-04-24T06:45:18;9.18;;;1.90;;
64244;SDS011;50584;29.058;-110.966;2023-04-24T06:47:44;7.78;;;1.98;;
64244;SDS011;50584;29.058;-110.966;2023-04-24T06:50:10;7.50;;;1.73;;
64244;SDS011;50584;29.058;-110.966;2023-04-24T06:52:36;9.90;;;1.83;;
64244;SDS011;50584;29.058;-110.966;2023-04-24T06:55:03;4.22;;;1.83;;
64244;SDS011;50584;29.058;-110.966;2023-04-24T06:57:29;8.73;;;1.70;;
64244;SDS011;50584;29.058;-110.966;2023-04-24T06:59:55;7.07;;;1.77;;
64244;SDS011;50584;29.058;-110.966;2023-04-24T07:02:21;3.47;;;1.50;;
64244;SDS011;50584;29.058;-110.966;2023-04-24T07:04:47;10.38;;;1.90;;
64244;SDS011;50584;29.058;-110.966;2023-04-24T07:07:13;4.35;;;1.20;;
64244;SDS011;50584;29.058;-110.966;2023-04-24T07:09:39;6.35;;;1.55;;
64244;SDS011;50584;29.058;-110.966;2023-04-24T07:12:10;10.20;;;1.70;;
64244;SDS011;50584;29.058;-110.966;2023-04-24T07:14:37;9.85;;;1.25;;
64244;SDS011;50584;29.058;-110.966;2023-04-24T07:17:06;3.80;;;1.38;;
64244;SDS011;50584;29.058;-110.966;2023-04-24T07:19:35;5.00;;;1.80;;
64244;SDS011;50584;29.058;-110.966;2023-04-24T07:22:01;3.38;;;1.40;;
64244;SDS011;50584;29.058;-110.966;2023-04-24T07:24:28;5.45;;;2.10;;
64244;SDS011;50584;29.058;-110.966;2023-04-24T07:26:53;6.75;;;2.08;;
64244;SDS011;50584;29.058;-110.966;2023-04-24T07:29:20;11.38;;;2.53;;
64244;SDS011;50584;29.058;-110.966;2023-04-24T07:31:46;4.80;;;2.97;;
64244;SDS011;50584;29.058;-110.966;2023-04-24T07:34:12;14.43;;;2.70;;
64244;SDS011;50584;29.058;-110.966;2023-04-24T07:36:38;14.25;;;3.65;;
64244;SDS011;50584;29.058;-110.966;2023-04-24T07:39:04;22.13;;;3.88;;
64244;SDS011;50584;29.058;-110.966;2023-04-24T07:41:30;17.02;;;4.15;;
64244;SDS011;50584;29.058;-110.966;2023-04-24T07:43:55;12.35;;;3.33;;
64244;SDS011;50584;29.058;-110.966;2023-04-24T07:46:21;13.10;;;3.63;;
64244;SDS011;50584;29.058;-110.966;2023-04-24T07:48:48;18.05;;;4.05;;
64244;SDS011;50584;29.058;-110.966;2023-04-24T07:51:14;11.68;;;3.38;;
64244;SDS011;50584;29.058;-110.966;2023-04-24T07:53:40;7.50;;;3.10;;
64244;SDS011;50584;29.058;-110.966;2023-04-24T07:56:06;12.23;;;3.28;;
64244;SDS011;50584;29.058;-110.966;2023-04-24T07:58:32;9.23;;;2.45;;
64244;SDS011;50584;29.058;-110.966;2023-04-24T08:00:58;8.57;;;2.47;;
64244;SDS011;50584;29.058;-110.966;2023-04-24T08:03:24;8.77;;;2.88;;
64244;SDS011;50584;29.058;-110.966;2023-04-24T08:05:50;8.13;;;2.65;;
64244;SDS011;50584;29.058;-110.966;2023-04-24T08:08:16;11.25;;;3.10;;
64244;SDS011;50584;29.058;-110.966;2023-04-24T08:10:42;18.40;;;3.33;;
64244;SDS011;50584;29.058;-110.966;2023-04-24T08:13:08;19.90;;;4.47;;
64244;SDS011;50584;29.058;-110.966;2023-04-24T08:15:33;16.38;;;4.13;;
64244;SDS011;50584;29.058;-110.966;2023-04-24T08:17:59;18.52;;;4.07;;
64244;SDS011;50584;29.058;-110.966;2023-04-24T08:20:25;24.73;;;4.50;;
64244;SDS011;50584;29.058;-110.966;2023-04-24T08:22:51;20.58;;;4.10;;
64244;SDS011;50584;29.058;-110.966;2023-04-24T08:25:17;12.38;;;3.67;;
64244;SDS011;50584;29.058;-110.966;2023-04-24T08:27:44;19.80;;;4.22;;
64244;SDS011;50584;29.058;-110.966;2023-04-24T08:30:10;20.90;;;4.57;;
64244;SDS011;50584;29.058;-110.966;2023-04-24T08:32:36;16.67;;;4.10;;
64244;SDS011;50584;29.058;-110.966;2023-04-24T08:35:02;15.32;;;3.55;;
64244;SDS011;50584;29.058;-110.966;2023-04-24T08:37:28;14.73;;;4.00;;
64244;SDS011;50584;29.058;-110.966;2023-04-24T08:39:54;20.00;;;4.03;;
64244;SDS011;50584;29.058;-110.966;2023-04-24T08:42:20;19.00;;;3.88;;
64244;SDS011;50584;29.058;-110.966;2023-04-24T08:44:47;18.40;;;3.60;;
64244;SDS011;50584;29.058;-110.966;2023-04-24T08:47:13;20.40;;;3.90;;
64244;SDS011;50584;29.058;-110.966;2023-04-24T08:49:40;16.25;;;3.55;;
64244;SDS011;50584;29.058;-110.966;2023-04-24T08:52:06;14.63;;;3.63;;
64244;SDS011;50584;29.058;-110.966;2023-04-24T08:54:35;12.68;;;3.72;;
64244;SDS011;50584;29.058;-110.966;2023-04-24T08:57:01;18.10;;;3.67;;
64244;SDS011;50584;29.058;-110.966;2023-04-24T08:59:29;13.40;;;3.72;;
64244;SDS011;50584;29.058;-110.966;2023-04-24T09:01:55;21.25;;;3.80;;
64244;SDS011;50584;29.058;-110.966;2023-04-24T09:04:21;10.20;;;3.58;;
64244;SDS011;50584;29.058;-110.966;2023-04-24T09:06:50;15.20;;;3.70;;
64244;SDS011;50584;29.058;-110.966;2023-04-24T09:09:16;11.05;;;3.65;;
64244;SDS011;50584;29.058;-110.966;2023-04-24T09:11:43;14.25;;;3.58;;
64244;SDS011;50584;29.058;-110.966;2023-04-24T09:14:09;17.60;;;4.10;;
64244;SDS011;50584;29.058;-110.966;2023-04-24T09:16:35;10.77;;;3.30;;
64244;SDS011;50584;29.058;-110.966;2023-04-24T09:19:01;13.80;;;5.00;;
64244;SDS011;50584;29.058;-110.966;2023-04-24T09:21:31;22.55;;;4.22;;
64244;SDS011;50584;29.058;-110.966;2023-04-24T09:23:58;15.48;;;3.85;;
64244;SDS011;50584;29.058;-110.966;2023-04-24T09:26:24;16.00;;;3.72;;
64244;SDS011;50584;29.058;-110.966;2023-04-24T09:28:50;13.30;;;4.10;;
64244;SDS011;50584;29.058;-110.966;2023-04-24T09:31:17;16.23;;;4.57;;
64244;SDS011;50584;29.058;-110.966;2023-04-24T09:34:00;21.38;;;4.20;;
64244;SDS011;50584;29.058;-110.966;2023-04-24T09:36:30;21.58;;;4.05;;
64244;SDS011;50584;29.058;-110.966;2023-04-24T09:39:01;14.23;;;3.92;;
64244;SDS011;50584;29.058;-110.966;2023-04-24T09:41:27;24.33;;;3.70;;
64244;SDS011;50584;29.058;-110.966;2023-04-24T09:43:54;13.00;;;3.65;;
64244;SDS011;50584;29.058;-110.966;2023-04-24T09:46:20;16.70;;;3.95;;
64244;SDS011;50584;29.058;-110.966;2023-04-24T09:48:49;16.00;;;3.40;;
64244;SDS011;50584;29.058;-110.966;2023-04-24T09:51:14;14.35;;;3.47;;
64244;SDS011;50584;29.058;-110.966;2023-04-24T09:53:45;23.85;;;3.60;;
64244;SDS011;50584;29.058;-110.966;2023-04-24T09:56:11;14.10;;;3.53;;
64244;SDS011;50584;29.058;-110.966;2023-04-24T09:58:40;13.90;;;2.88;;
64244;SDS011;50584;29.058;-110.966;2023-04-24T10:01:06;15.73;;;3.40;;
64244;SDS011;50584;29.058;-110.966;2023-04-24T10:03:32;14.25;;;3.35;;
64244;SDS011;50584;29.058;-110.966;2023-04-24T10:06:02;13.45;;;3.15;;
64244;SDS011;50584;29.058;-110.966;2023-04-24T10:08:35;7.25;;;3.13;;
64244;SDS011;50584;29.058;-110.966;2023-04-24T10:11:01;11.85;;;3.72;;
64244;SDS011;50584;29.058;-110.966;2023-04-24T10:13:27;14.55;;;3.50;;
64244;SDS011;50584;29.058;-110.966;2023-04-24T10:15:53;9.77;;;2.70;;
64244;SDS011;50584;29.058;-110.966;2023-04-24T10:18:19;20.05;;;3.60;;
64244;SDS011;50584;29.058;-110.966;2023-04-24T10:20:46;19.88;;;3.40;;
64244;SDS011;50584;29.058;-110.966;2023-04-24T10:23:12;11.20;;;3.42;;
64244;SDS011;50584;29.058;-110.966;2023-04-24T10:25:38;9.43;;;2.85;;
64244;SDS011;50584;29.058;-110.966;2023-04-24T10:28:04;8.25;;;2.75;;
64244;SDS011;50584;29.058;-110.966;2023-04-24T10:30:31;13.52;;;3.03;;
64244;SDS011;50584;29.058;-110.966;2023-04-24T10:33:00;8.07;;;3.03;;
64244;SDS011;50584;29.058;-110.966;2023-04-24T10:35:26;10.23;;;3.15;;
64244;SDS011;50584;29.058;-110.966;2023-04-24T10:38:00;13.27;;;2.78;;
64244;SDS011;50584;29.058;-110.966;2023-04-24T10:40:29;10.65;;;3.10;;
64244;SDS011;50584;29.058;-110.966;2023-04-24T10:42:55;18.27;;;2.83;;
64244;SDS011;50584;29.058;-110.966;2023-04-24T10:45:22;15.07;;;3.05;;
64244;SDS011;50584;29.058;-110.966;2023-04-24T10:47:52;9.93;;;3.08;;
64244;SDS011;50584;29.058;-110.966;2023-04-24T10:50:18;6.75;;;2.97;;
64244;SDS011;50584;29.058;-110.966;2023-04-24T10:52:44;11.15;;;3.05;;
64244;SDS011;50584;29.058;-110.966;2023-04-24T10:55:10;19.70;;;3.47;;
64244;SDS011;50584;29.058;-110.966;2023-04-24T10:57:37;11.05;;;2.83;;
64244;SDS011;50584;29.058;-110.966;2023-04-24T11:00:13;11.80;;;3.42;;
64244;SDS011;50584;29.058;-110.966;2023-04-24T11:02:40;9.50;;;2.65;;
64244;SDS011;50584;29.058;-110.966;2023-04-24T11:05:14;12.85;;;2.92;;
64244;SDS011;50584;29.058;-110.966;2023-04-24T11:10:25;7.78;;;2.40;;
64244;SDS011;50584;29.058;-110.966;2023-04-24T11:12:52;8.95;;;2.80;;
64244;SDS011;50584;29.058;-110.966;2023-04-24T11:15:18;9.25;;;2.50;;
64244;SDS011;50584;29.058;-110.966;2023-04-24T11:17:45;7.32;;;2.63;;
64244;SDS011;50584;29.058;-110.966;2023-04-24T11:20:11;5.50;;;2.38;;
64244;SDS011;50584;29.058;-110.966;2023-04-24T11:22:38;10.02;;;2.58;;
64244;SDS011;50584;29.058;-110.966;2023-04-24T11:25:05;11.45;;;2.72;;
64244;SDS011;50584;29.058;-110.966;2023-04-24T11:27:41;7.25;;;2.92;;
64244;SDS011;50584;29.058;-110.966;2023-04-24T11:30:08;4.57;;;2.92;;
64244;SDS011;50584;29.058;-110.966;2023-04-24T11:37:34;10.88;;;3.00;;
64244;SDS011;50584;29.058;-110.966;2023-04-24T11:40:00;12.48;;;3.22;;
64244;SDS011;50584;29.058;-110.966;2023-04-24T11:42:26;13.75;;;3.22;;
64244;SDS011;50584;29.058;-110.966;2023-04-24T11:44:53;14.82;;;3.22;;
64244;SDS011;50584;29.058;-110.966;2023-04-24T11:47:27;10.20;;;3.05;;
64244;SDS011;50584;29.058;-110.966;2023-04-24T11:49:54;16.65;;;4.20;;
64244;SDS011;50584;29.058;-110.966;2023-04-24T11:52:19;10.40;;;4.07;;
64244;SDS011;50584;29.058;-110.966;2023-04-24T11:54:49;9.13;;;3.75;;
64244;SDS011;50584;29.058;-110.966;2023-04-24T11:57:15;9.23;;;3.95;;
64244;SDS011;50584;29.058;-110.966;2023-04-24T11:59:41;9.13;;;4.15;;
64244;SDS011;50584;29.058;-110.966;2023-04-24T12:02:07;9.75;;;4.35;;
64244;SDS011;50584;29.058;-110.966;2023-04-24T12:04:39;6.00;;;3.50;;
64244;SDS011;50584;29.058;-110.966;2023-04-24T12:07:06;16.08;;;3.90;;
64244;SDS011;50584;29.058;-110.966;2023-04-24T12:09:43;8.00;;;3.45;;
64244;SDS011;50584;29.058;-110.966;2023-04-24T12:12:10;12.38;;;3.00;;
64244;SDS011;50584;29.058;-110.966;2023-04-24T12:14:48;6.55;;;2.70;;
64244;SDS011;50584;29.058;-110.966;2023-04-24T12:17:15;12.25;;;3.00;;
64244;SDS011;50584;29.058;-110.966;2023-04-24T12:19:45;12.23;;;2.67;;
64244;SDS011;50584;29.058;-110.966;2023-04-24T12:22:11;12.23;;;2.47;;
64244;SDS011;50584;29.058;-110.966;2023-04-24T12:24:54;22.67;;;2.80;;
64244;SDS011;50584;29.058;-110.966;2023-04-24T12:27:21;7.47;;;2.53;;
64244;SDS011;50584;29.058;-110.966;2023-04-24T12:29:55;10.90;;;2.35;;
64244;SDS011;50584;29.058;-110.966;2023-04-24T12:32:21;7.75;;;2.55;;
64244;SDS011;50584;29.058;-110.966;2023-04-24T12:34:47;6.82;;;1.98;;
64244;SDS011;50584;29.058;-110.966;2023-04-24T12:37:12;6.88;;;2.30;;
64244;SDS011;50584;29.058;-110.966;2023-04-24T12:39:38;10.63;;;2.25;;
64244;SDS011;50584;29.058;-110.966;2023-04-24T12:42:04;16.83;;;2.67;;
64244;SDS011;50584;29.058;-110.966;2023-04-24T12:46:56;6.10;;;2.00;;
64244;SDS011;50584;29.058;-110.966;2023-04-24T12:49:22;5.28;;;2.10;;
64244;SDS011;50584;29.058;-110.966;2023-04-24T12:51:48;13.18;;;2.67;;
64244;SDS011;50584;29.058;-110.966;2023-04-24T12:54:14;18.60;;;3.08;;
64244;SDS011;50584;29.058;-110.966;2023-04-24T12:56:40;9.07;;;2.63;;
64244;SDS011;50584;29.058;-110.966;2023-04-24T12:59:06;8.80;;;2.75;;
64244;SDS011;50584;29.058;-110.966;2023-04-24T13:01:31;16.30;;;2.47;;
64244;SDS011;50584;29.058;-110.966;2023-04-24T13:03:57;12.90;;;2.13;;
64244;SDS011;50584;29.058;-110.966;2023-04-24T13:06:23;11.57;;;2.40;;
64244;SDS011;50584;29.058;-110.966;2023-04-24T13:08:49;5.18;;;2.03;;
64244;SDS011;50584;29.058;-110.966;2023-04-24T13:11:16;20.20;;;2.70;;
64244;SDS011;50584;29.058;-110.966;2023-04-24T13:13:42;8.30;;;2.28;;
64244;SDS011;50584;29.058;-110.966;2023-04-24T13:16:08;14.07;;;2.72;;
64244;SDS011;50584;29.058;-110.966;2023-04-24T13:18:34;18.17;;;7.18;;
64244;SDS011;50584;29.058;-110.966;2023-04-24T13:21:00;87.20;;;31.88;;
64244;SDS011;50584;29.058;-110.966;2023-04-24T13:23:25;64.30;;;19.90;;
64244;SDS011;50584;29.058;-110.966;2023-04-24T13:25:51;117.30;;;28.65;;
64244;SDS011;50584;29.058;-110.966;2023-04-24T13:28:17;234.50;;;41.30;;
64244;SDS011;50584;29.058;-110.966;2023-04-24T13:30:43;178.85;;;40.28;;
64244;SDS011;50584;29.058;-110.966;2023-04-24T13:33:08;102.38;;;27.58;;
64244;SDS011;50584;29.058;-110.966;2023-04-24T13:35:34;315.02;;;107.13;;
64244;SDS011;50584;29.058;-110.966;2023-04-24T13:38:00;567.92;;;215.18;;
64244;SDS011;50584;29.058;-110.966;2023-04-24T13:40:28;467.85;;;165.18;;
64244;SDS011;50584;29.058;-110.966;2023-04-24T13:42:54;273.35;;;95.35;;
64244;SDS011;50584;29.058;-110.966;2023-04-24T13:45:20;311.85;;;117.53;;
64244;SDS011;50584;29.058;-110.966;2023-04-24T13:47:46;175.45;;;65.25;;
64244;SDS011;50584;29.058;-110.966;2023-04-24T13:50:12;42.63;;;13.95;;
64244;SDS011;50584;29.058;-110.966;2023-04-24T13:52:37;50.90;;;18.15;;
64244;SDS011;50584;29.058;-110.966;2023-04-24T13:55:03;46.85;;;13.82;;
64244;SDS011;50584;29.058;-110.966;2023-04-24T13:57:29;50.85;;;16.45;;
64244;SDS011;50584;29.058;-110.966;2023-04-24T13:59:57;24.80;;;5.80;;
64244;SDS011;50584;29.058;-110.966;2023-04-24T14:02:26;23.95;;;5.93;;
64244;SDS011;50584;29.058;-110.966;2023-04-24T14:04:52;10.90;;;5.07;;
64244;SDS011;50584;29.058;-110.966;2023-04-24T14:07:18;16.83;;;6.20;;